Terminal Aerodrome Forecast
Issued by NWS

Home | Current Version | Previous Version | Text Only | Print | Product List | Glossary On
Versions: 1 2 3 4 5 6 7 8 9 10 11 12 13 14 15 16 17 18
000
FTUS44 KEPZ 180500
TAFTCS
TAF
KTCS 180522Z 1806/1906 02007KT P6SM -SHRA SCT025 OVC060
      TEMPO 1810/1814 4SM SHRA SCT010 BKN025
     FM181400 04007KT P6SM -SHRA SCT015 BKN025 OVC040
     FM190200 36007KT P6SM VCSH SCT010 BKN020 OVC040=

USA.gov is the U.S. government's official web portal to all federal, state and local government web resources and services.